Time;durP1;ratioP1;P1;durP2;ratioP2;P2;SDS_P1;SDS_P2;PMS_P1;PMS_P2;Temp;Humidity;BMP_temperature;BMP_pressure;BME280_temperature;BME280_humidity;BME280_pressure;Samples;Min_cycle;Max_cycle;Signal;HPM_P1;HPM_P2
2021/12/26 00:02:12;;;;;;;3.23;2.13;;;1.50;99.90;;;;;;5012108;28;20281;-72
2021/12/26 00:04:37;;;;;;;5.77;2.70;;;1.50;99.90;;;;;;5010630;28;20034;-72
2021/12/26 00:07:04;;;;;;;4.77;2.37;;;1.40;99.90;;;;;;5027953;28;20309;-73
2021/12/26 00:09:33;;;;;;;3.37;2.07;;;1.40;99.90;;;;;;5028183;28;20026;-72
2021/12/26 00:12:01;;;;;;;5.23;2.43;;;1.50;99.90;;;;;;5027046;28;20289;-73
2021/12/26 00:14:26;;;;;;;4.43;2.40;;;1.50;99.90;;;;;;5010693;28;20281;-71
2021/12/26 00:16:54;;;;;;;4.97;2.53;;;1.50;99.90;;;;;;5012373;28;20359;-72
2021/12/26 00:19:20;;;;;;;3.87;2.13;;;1.50;99.90;;;;;;5027870;28;20061;-72
2021/12/26 00:21:47;;;;;;;4.47;2.20;;;1.50;99.90;;;;;;5027193;28;20293;-73
2021/12/26 00:24:13;;;;;;;4.53;2.67;;;1.50;99.90;;;;;;5027299;28;20018;-72
2021/12/26 00:26:39;;;;;;;2.93;1.97;;;1.60;99.90;;;;;;5028067;28;20313;-72
2021/12/26 00:29:05;;;;;;;4.63;2.47;;;1.50;99.90;;;;;;5027322;28;20053;-72
2021/12/26 00:31:31;;;;;;;5.97;2.67;;;1.50;99.90;;;;;;5026875;28;20037;-72
2021/12/26 00:33:57;;;;;;;3.83;2.53;;;1.50;99.90;;;;;;5011187;28;20340;-72
2021/12/26 00:36:23;;;;;;;6.40;2.93;;;1.60;99.90;;;;;;5010646;28;20129;-72
2021/12/26 00:38:49;;;;;;;5.13;2.70;;;1.60;99.90;;;;;;5027614;28;20281;-72
2021/12/26 00:41:15;;;;;;;10.43;2.30;;;1.60;99.90;;;;;;5027537;28;20293;-72
2021/12/26 00:43:43;;;;;;;4.53;2.30;;;1.60;99.90;;;;;;5012255;28;20100;-72
2021/12/26 00:46:09;;;;;;;4.97;2.33;;;1.60;99.90;;;;;;5034088;28;20026;-72
2021/12/26 00:48:34;;;;;;;4.53;2.50;;;1.60;99.90;;;;;;5027874;28;20293;-73
2021/12/26 00:51:01;;;;;;;4.47;2.10;;;1.60;99.90;;;;;;5027868;28;20022;-72
2021/12/26 00:53:29;;;;;;;4.40;2.50;;;1.60;99.90;;;;;;5026840;28;20026;-72
2021/12/26 00:55:55;;;;;;;4.50;2.70;;;1.60;99.90;;;;;;5012052;28;20281;-72
2021/12/26 00:58:20;;;;;;;4.17;2.30;;;1.60;99.90;;;;;;5027235;28;20283;-71
2021/12/26 01:00:51;;;;;;;4.57;2.23;;;1.60;99.90;;;;;;5011115;28;20112;-72
2021/12/26 01:03:18;;;;;;;3.13;1.87;;;1.60;99.90;;;;;;5010075;28;20054;-73
2021/12/26 01:05:48;;;;;;;2.70;1.97;;;1.50;99.90;;;;;;5010577;28;20561;-72
2021/12/26 01:08:16;;;;;;;5.67;2.27;;;1.60;99.90;;;;;;5011034;28;20304;-72
2021/12/26 01:10:57;;;;;;;4.60;2.20;;;1.60;99.90;;;;;;5010322;28;20352;-73
2021/12/26 01:15:53;;;;;;;3.90;2.00;;;1.60;99.90;;;;;;5011557;28;20365;-72
2021/12/26 01:18:19;;;;;;;6.77;2.47;;;1.60;99.90;;;;;;5026495;28;20297;-72
2021/12/26 01:21:00;;;;;;;5.33;2.43;;;1.60;99.90;;;;;;5011424;28;20273;-72
2021/12/26 01:23:31;;;;;;;3.23;1.70;;;1.60;99.90;;;;;;5026593;28;20022;-72
2021/12/26 01:25:58;;;;;;;3.63;2.30;;;1.60;99.90;;;;;;5010035;28;20321;-72
2021/12/26 01:28:28;;;;;;;5.47;2.13;;;1.60;99.90;;;;;;5032725;28;20309;-72
2021/12/26 01:30:54;;;;;;;3.60;1.93;;;1.60;99.90;;;;;;5010080;28;20438;-72
2021/12/26 01:33:20;;;;;;;3.93;2.03;;;1.60;99.90;;;;;;5010878;28;20290;-72
2021/12/26 01:35:47;;;;;;;4.20;2.30;;;1.60;99.90;;;;;;5010713;28;20283;-72
2021/12/26 01:38:14;;;;;;;3.50;2.13;;;1.60;99.90;;;;;;5009421;28;20062;-72
2021/12/26 01:41:09;;;;;;;4.40;2.67;;;1.60;99.90;;;;;;5010919;28;20273;-71
2021/12/26 01:43:37;;;;;;;7.53;2.30;;;1.60;99.90;;;;;;5010232;28;20300;-72
2021/12/26 01:46:03;;;;;;;3.63;2.13;;;1.60;99.90;;;;;;5010406;28;20286;-71
2021/12/26 01:48:29;;;;;;;3.27;2.20;;;1.70;99.90;;;;;;5011147;28;20277;-72
2021/12/26 01:50:55;;;;;;;4.07;2.30;;;1.70;99.90;;;;;;5025891;28;20457;-71
2021/12/26 01:53:25;;;;;;;4.07;2.20;;;1.70;99.90;;;;;;5010845;28;20049;-71
2021/12/26 01:55:53;;;;;;;3.67;2.30;;;1.70;99.90;;;;;;5011158;28;20273;-72
2021/12/26 01:58:26;;;;;;;4.33;2.30;;;1.70;99.90;;;;;;5010314;28;20293;-72
2021/12/26 02:00:55;;;;;;;4.53;2.27;;;1.70;99.90;;;;;;5026352;28;20286;-72
2021/12/26 02:03:21;;;;;;;5.40;2.90;;;1.80;99.90;;;;;;5026730;28;20285;-72
2021/12/26 02:05:46;;;;;;;4.03;2.50;;;1.70;99.90;;;;;;5026487;28;20304;-72
2021/12/26 02:08:12;;;;;;;4.97;2.63;;;1.70;99.90;;;;;;5010715;28;20038;-71
2021/12/26 02:10:41;;;;;;;3.33;1.90;;;1.70;99.90;;;;;;5025968;28;20018;-72
2021/12/26 02:13:07;;;;;;;4.53;2.53;;;1.70;99.90;;;;;;5032306;28;20035;-72
2021/12/26 02:15:32;;;;;;;8.57;2.90;;;1.70;99.90;;;;;;5026010;28;20296;-72
2021/12/26 02:18:01;;;;;;;4.60;2.57;;;1.70;99.90;;;;;;5026681;28;20200;-71
2021/12/26 02:23:15;;;;;;;3.27;2.03;;;1.70;99.90;;;;;;5010183;28;20287;-72
2021/12/26 02:28:19;;;;;;;4.90;2.53;;;1.70;99.90;;;;;;5014164;28;20288;-71
2021/12/26 02:30:48;;;;;;;3.30;2.47;;;1.70;99.90;;;;;;5013358;28;20289;-72
2021/12/26 02:33:15;;;;;;;5.57;2.80;;;1.70;99.90;;;;;;5014331;28;20299;-72
2021/12/26 02:35:41;;;;;;;4.90;2.53;;;1.70;99.90;;;;;;5015092;28;20332;-72
2021/12/26 02:38:08;;;;;;;7.97;2.70;;;1.70;99.90;;;;;;5030195;28;20273;-71
2021/12/26 02:40:34;;;;;;;4.90;2.83;;;1.70;99.90;;;;;;5030656;28;20029;-72
2021/12/26 02:43:00;;;;;;;6.63;3.27;;;1.70;99.90;;;;;;5014062;28;20281;-72
2021/12/26 02:45:26;;;;;;;6.83;2.77;;;1.80;99.90;;;;;;5013935;28;20034;-71
2021/12/26 02:47:52;;;;;;;6.13;3.27;;;1.80;99.90;;;;;;5030773;28;20110;-72
2021/12/26 02:50:25;;;;;;;5.50;2.83;;;1.80;99.90;;;;;;5030295;28;20086;-72
2021/12/26 02:52:51;;;;;;;;;;;1.80;99.90;;;;;;5014086;28;20353;-72
2021/12/26 02:55:19;;;;;;;5.77;2.93;;;1.80;99.90;;;;;;5014130;28;19931;-72
2021/12/26 02:57:51;;;;;;;7.07;3.30;;;1.80;99.90;;;;;;5030210;28;20306;-71
2021/12/26 03:00:19;;;;;;;5.67;3.13;;;1.80;99.90;;;;;;5014125;28;20297;-72
2021/12/26 03:02:49;;;;;;;10.60;3.57;;;1.80;99.90;;;;;;5013810;28;20352;-72
2021/12/26 03:05:16;;;;;;;6.60;3.27;;;1.90;99.90;;;;;;5028871;28;20297;-72
2021/12/26 03:07:44;;;;;;;8.10;3.13;;;1.90;99.90;;;;;;5029113;28;20316;-72
2021/12/26 03:10:20;;;;;;;7.23;3.50;;;1.90;99.90;;;;;;5013422;28;20316;-72
2021/12/26 03:12:46;;;;;;;5.40;2.90;;;1.90;99.90;;;;;;5029637;28;20274;-73
2021/12/26 03:15:14;;;;;;;8.07;4.10;;;1.90;99.90;;;;;;5014016;28;20312;-72
2021/12/26 03:17:40;;;;;;;6.03;3.17;;;1.90;99.90;;;;;;5029324;28;20098;-73
2021/12/26 03:20:15;;;;;;;5.60;2.80;;;1.90;99.90;;;;;;5029396;28;20312;-72
2021/12/26 03:22:41;;;;;;;6.27;3.47;;;1.90;99.90;;;;;;5013979;28;20026;-72
2021/12/26 03:25:17;;;;;;;8.23;3.77;;;1.90;99.90;;;;;;5029607;28;21331;-72
2021/12/26 03:27:43;;;;;;;6.60;3.70;;;1.90;99.90;;;;;;5035601;28;20038;-72
2021/12/26 03:30:11;;;;;;;7.70;3.37;;;1.90;99.90;;;;;;5028959;28;20320;-72
2021/12/26 03:32:37;;;;;;;7.30;3.20;;;1.80;99.90;;;;;;5013864;28;20161;-72
2021/12/26 03:35:03;;;;;;;5.40;3.07;;;1.90;99.90;;;;;;5012822;28;20281;-71
2021/12/26 03:37:29;;;;;;;8.13;3.50;;;1.80;99.90;;;;;;5028087;28;20034;-71
2021/12/26 03:39:56;;;;;;;8.90;3.60;;;1.90;99.90;;;;;;5013290;28;20281;-73
2021/12/26 03:42:22;;;;;;;6.93;3.60;;;1.90;99.90;;;;;;5013735;28;20033;-71
2021/12/26 03:44:49;;;;;;;7.63;4.37;;;1.90;99.90;;;;;;5029147;28;20281;-72
2021/12/26 03:47:15;;;;;;;6.77;3.33;;;1.90;99.90;;;;;;5011687;28;20326;-72
2021/12/26 03:49:43;;;;;;;6.93;3.30;;;1.90;99.90;;;;;;5028795;28;20289;-72
2021/12/26 03:52:09;;;;;;;9.70;3.57;;;1.90;99.90;;;;;;5012678;28;20277;-72
2021/12/26 03:54:35;;;;;;;7.27;3.30;;;1.90;99.90;;;;;;5013169;28;20289;-72
2021/12/26 03:57:03;;;;;;;8.83;3.30;;;1.90;99.90;;;;;;5012406;28;20316;-72
2021/12/26 03:59:31;;;;;;;6.27;3.57;;;1.90;99.90;;;;;;5028350;28;20014;-72
2021/12/26 04:01:57;;;;;;;6.40;3.23;;;1.90;99.90;;;;;;5011795;28;20332;-72
2021/12/26 04:04:24;;;;;;;7.80;3.63;;;1.90;99.90;;;;;;5013244;28;20286;-72
2021/12/26 04:06:49;;;;;;;8.30;3.57;;;1.90;99.90;;;;;;5027749;28;20293;-73
2021/12/26 04:09:16;;;;;;;10.03;3.83;;;1.90;99.90;;;;;;5012709;28;20871;-72
2021/12/26 04:11:44;;;;;;;10.73;4.23;;;1.90;99.90;;;;;;5011865;28;20022;-72
2021/12/26 04:14:11;;;;;;;6.30;3.67;;;1.90;99.90;;;;;;5011832;28;20273;-71
2021/12/26 04:16:36;;;;;;;7.30;3.80;;;1.90;99.90;;;;;;5012842;28;20266;-71
2021/12/26 04:19:03;;;;;;;8.30;4.43;;;1.90;99.90;;;;;;5012595;28;21259;-72
2021/12/26 04:21:28;;;;;;;6.40;3.53;;;1.90;99.90;;;;;;5028286;28;20023;-72
2021/12/26 04:23:57;;;;;;;8.00;4.03;;;1.90;99.90;;;;;;5011964;28;20328;-72
2021/12/26 04:26:22;;;;;;;6.83;4.00;;;2.00;99.90;;;;;;5011968;28;20025;-72
2021/12/26 04:28:48;;;;;;;8.07;4.03;;;2.00;99.90;;;;;;5010782;28;20297;-72
2021/12/26 04:31:15;;;;;;;5.97;3.30;;;2.00;99.90;;;;;;5011112;28;20030;-72
2021/12/26 04:33:41;;;;;;;5.77;3.20;;;2.00;99.90;;;;;;5027392;28;20089;-73
2021/12/26 04:36:07;;;;;;;8.90;3.97;;;2.00;99.90;;;;;;5011662;28;20277;-72
2021/12/26 04:38:33;;;;;;;9.87;4.00;;;2.00;99.90;;;;;;5011775;28;20035;-72
2021/12/26 04:40:58;;;;;;;8.43;4.30;;;2.00;99.90;;;;;;5010768;28;20118;-72
2021/12/26 04:43:26;;;;;;;8.73;3.80;;;2.00;99.90;;;;;;5027324;28;20041;-72
2021/12/26 04:45:51;;;;;;;10.87;4.23;;;2.00;99.90;;;;;;5011280;28;20022;-72
2021/12/26 04:48:17;;;;;;;8.83;4.00;;;2.00;99.90;;;;;;5026745;28;20328;-72
2021/12/26 04:50:43;;;;;;;9.40;4.50;;;2.00;99.90;;;;;;5032225;28;20019;-71
2021/12/26 04:53:09;;;;;;;8.93;4.10;;;2.00;99.90;;;;;;5011012;28;20097;-72
2021/12/26 04:55:35;;;;;;;7.13;3.83;;;2.00;99.90;;;;;;5033522;28;20053;-72
2021/12/26 04:58:02;;;;;;;6.97;3.60;;;2.00;99.90;;;;;;5011048;28;20030;-72
2021/12/26 05:00:29;;;;;;;8.53;3.80;;;2.00;99.90;;;;;;5011471;28;20273;-71
2021/12/26 05:02:57;;;;;;;9.20;4.27;;;2.00;99.90;;;;;;5011208;28;20285;-72
2021/12/26 05:05:26;;;;;;;8.07;3.80;;;2.00;99.90;;;;;;5011013;28;20301;-72
2021/12/26 05:07:53;;;;;;;7.00;4.00;;;2.00;99.90;;;;;;5026930;28;20301;-71
2021/12/26 05:10:19;;;;;;;8.97;4.30;;;2.00;99.90;;;;;;5027384;28;20300;-72
2021/12/26 05:12:46;;;;;;;7.70;4.20;;;2.00;99.90;;;;;;5027239;28;20313;-72
2021/12/26 05:15:13;;;;;;;5.70;3.37;;;2.00;99.90;;;;;;5027821;28;20280;-72
2021/12/26 05:17:40;;;;;;;8.37;4.30;;;2.00;99.90;;;;;;5010071;28;20311;-72
2021/12/26 05:20:10;;;;;;;9.77;4.90;;;2.00;99.90;;;;;;5011417;28;20269;-71
2021/12/26 05:22:36;;;;;;;7.60;3.90;;;2.00;99.90;;;;;;5011701;28;20356;-74
2021/12/26 05:25:03;;;;;;;8.20;3.90;;;2.00;99.90;;;;;;5010623;28;20269;-72
2021/12/26 05:27:32;;;;;;;10.83;4.43;;;2.10;99.90;;;;;;5010509;28;20311;-72
2021/12/26 05:29:59;;;;;;;8.30;4.33;;;2.10;99.90;;;;;;5009913;28;20278;-72
2021/12/26 05:32:25;;;;;;;9.57;3.90;;;2.10;99.90;;;;;;5026724;28;20324;-72
2021/12/26 05:34:51;;;;;;;8.10;4.07;;;2.10;99.90;;;;;;5011462;28;20265;-71
2021/12/26 05:37:16;;;;;;;8.77;4.57;;;2.00;99.90;;;;;;5010965;28;20238;-72
2021/12/26 05:39:42;;;;;;;8.77;4.37;;;2.00;99.90;;;;;;5033628;28;20128;-72
2021/12/26 05:42:15;;;;;;;8.53;3.83;;;2.00;99.90;;;;;;5011089;28;20082;-72
2021/12/26 05:44:41;;;;;;;8.57;4.03;;;2.00;99.90;;;;;;5010426;28;20289;-72
2021/12/26 05:47:07;;;;;;;10.17;4.80;;;2.00;99.90;;;;;;5026541;28;20050;-72
2021/12/26 05:49:32;;;;;;;9.03;4.43;;;2.00;99.90;;;;;;5011176;28;20288;-72
2021/12/26 05:51:58;;;;;;;8.83;4.60;;;2.00;99.90;;;;;;5009719;28;20033;-72
2021/12/26 05:54:23;;;;;;;10.50;4.50;;;1.90;99.90;;;;;;5010714;28;20018;-72
2021/12/26 05:56:49;;;;;;;9.87;4.47;;;2.00;99.90;;;;;;5010797;28;20034;-71
2021/12/26 05:59:15;;;;;;;12.80;4.67;;;2.00;99.90;;;;;;5026086;28;20037;-72
2021/12/26 06:01:40;;;;;;;8.67;4.80;;;2.10;99.90;;;;;;5025649;28;20069;-72
2021/12/26 06:04:06;;;;;;;7.90;4.23;;;2.10;99.90;;;;;;5010680;28;20079;-72
2021/12/26 06:06:32;;;;;;;10.10;5.47;;;2.10;99.90;;;;;;5026421;28;20034;-72
2021/12/26 06:08:57;;;;;;;9.27;4.50;;;2.10;99.90;;;;;;5010095;28;20022;-73
2021/12/26 06:11:23;;;;;;;8.27;4.30;;;2.10;99.90;;;;;;5026040;28;20033;-71
2021/12/26 06:13:49;;;;;;;9.80;4.50;;;2.00;99.90;;;;;;5026618;28;20042;-72
2021/12/26 06:16:14;;;;;;;8.97;4.23;;;2.10;99.90;;;;;;5026479;28;20038;-72
2021/12/26 06:18:40;;;;;;;10.73;4.77;;;2.00;99.90;;;;;;5025462;28;20014;-72
2021/12/26 06:21:05;;;;;;;8.37;4.77;;;2.00;99.90;;;;;;5009894;28;20030;-72
2021/12/26 06:23:31;;;;;;;9.70;4.27;;;2.00;99.90;;;;;;5010590;28;20030;-72
2021/12/26 06:25:57;;;;;;;5.53;3.50;;;2.00;99.90;;;;;;5026018;28;20045;-72
2021/12/26 06:28:22;;;;;;;10.87;4.50;;;2.00;99.90;;;;;;5031858;28;20042;-72
2021/12/26 06:30:48;;;;;;;10.00;4.67;;;2.00;99.90;;;;;;5010744;28;20041;-72
2021/12/26 06:33:13;;;;;;;8.87;4.37;;;2.00;99.90;;;;;;5026536;28;20045;-72
2021/12/26 06:35:41;;;;;;;7.57;4.00;;;2.10;99.90;;;;;;5009736;28;20026;-72
2021/12/26 06:38:07;;;;;;;11.70;4.97;;;2.00;99.90;;;;;;5009403;28;20026;-73
2021/12/26 06:40:32;;;;;;;9.97;4.40;;;2.10;99.90;;;;;;5025941;28;20281;-72
2021/12/26 06:42:58;;;;;;;8.33;4.17;;;2.10;99.90;;;;;;5025048;28;20082;-72
2021/12/26 06:45:26;;;;;;;8.67;4.03;;;2.10;99.90;;;;;;5025699;28;20036;-73
2021/12/26 06:47:54;;;;;;;9.23;4.37;;;2.10;99.90;;;;;;5025996;28;20034;-72
2021/12/26 06:50:20;;;;;;;11.07;4.50;;;2.20;99.90;;;;;;5010225;28;20284;-71
2021/12/26 06:52:46;;;;;;;9.53;4.53;;;2.10;99.90;;;;;;5010466;28;20308;-72
2021/12/26 06:55:12;;;;;;;10.40;4.63;;;2.20;99.90;;;;;;5025528;28;20305;-72
2021/12/26 06:57:38;;;;;;;8.57;4.43;;;2.20;99.90;;;;;;5025371;28;20042;-72
2021/12/26 07:00:10;;;;;;;10.83;4.60;;;2.20;99.90;;;;;;5011224;28;20040;-75
2021/12/26 07:02:36;;;;;;;11.07;5.18;;;2.20;99.90;;;;;;5009243;28;20293;-72
2021/12/26 07:05:04;;;;;;;10.10;4.43;;;2.20;99.90;;;;;;5009837;28;20031;-72
2021/12/26 07:07:30;;;;;;;11.67;5.07;;;2.20;99.90;;;;;;5025851;28;20049;-72
2021/12/26 07:09:55;;;;;;;10.33;5.17;;;2.20;99.90;;;;;;5025725;28;20281;-72
2021/12/26 07:12:21;;;;;;;10.73;4.47;;;2.20;99.90;;;;;;5010373;28;20105;-72
2021/12/26 07:14:47;;;;;;;9.30;4.40;;;2.20;99.90;;;;;;5013283;28;20057;-72
2021/12/26 07:17:12;;;;;;;11.53;5.37;;;2.20;99.90;;;;;;5012797;28;20069;-71
2021/12/26 07:19:40;;;;;;;11.77;5.07;;;2.20;99.90;;;;;;5013146;28;20057;-72
2021/12/26 07:22:07;;;;;;;11.67;5.03;;;2.20;99.90;;;;;;5013075;28;20038;-72
2021/12/26 07:24:33;;;;;;;7.77;4.13;;;2.20;99.90;;;;;;5012450;28;20288;-72
2021/12/26 07:27:01;;;;;;;9.73;4.60;;;2.20;99.90;;;;;;5012170;28;20356;-71
2021/12/26 07:29:27;;;;;;;11.27;5.37;;;2.20;99.90;;;;;;5012678;28;20036;-71
2021/12/26 07:31:54;;;;;;;10.57;5.13;;;2.20;99.90;;;;;;5028519;28;20284;-72
2021/12/26 07:34:22;;;;;;;11.50;4.60;;;2.20;99.90;;;;;;5029984;28;20248;-72
2021/12/26 07:36:48;;;;;;;9.87;5.03;;;2.20;99.90;;;;;;5013616;28;20391;-73
2021/12/26 07:39:14;;;;;;;10.50;5.30;;;2.20;99.90;;;;;;5028831;28;20352;-73
2021/12/26 07:41:40;;;;;;;11.17;4.97;;;2.20;99.90;;;;;;5029085;28;20030;-71
2021/12/26 07:44:05;;;;;;;12.30;5.00;;;2.20;99.90;;;;;;5014679;28;20023;-73
2021/12/26 07:46:31;;;;;;;12.40;5.27;;;2.20;99.90;;;;;;5029620;28;20285;-72
2021/12/26 07:48:56;;;;;;;10.30;4.63;;;2.30;99.90;;;;;;5028447;28;20053;-72
2021/12/26 07:51:22;;;;;;;11.60;5.00;;;2.30;99.90;;;;;;5013025;28;20058;-72
2021/12/26 07:53:50;;;;;;;9.43;4.73;;;2.30;99.90;;;;;;5026928;28;20049;-72
2021/12/26 07:56:15;;;;;;;10.23;4.83;;;2.30;99.90;;;;;;5027245;28;20037;-73
2021/12/26 07:58:41;;;;;;;9.53;4.70;;;2.40;99.90;;;;;;5033767;28;20313;-72
2021/12/26 08:01:07;;;;;;;9.33;5.20;;;2.40;99.90;;;;;;5011908;28;20033;-72
2021/12/26 08:03:37;;;;;;;10.87;5.07;;;2.40;99.90;;;;;;5012528;28;20053;-72
2021/12/26 08:06:02;;;;;;;9.20;4.70;;;2.50;99.90;;;;;;5031904;28;20011;-72
2021/12/26 08:08:31;;;;;;;8.57;4.63;;;2.50;99.90;;;;;;5026997;28;20308;-73
2021/12/26 08:10:59;;;;;;;8.77;4.43;;;2.50;99.90;;;;;;5012247;28;20049;-72
2021/12/26 08:13:24;;;;;;;9.73;4.53;;;2.50;99.90;;;;;;5012750;28;20365;-72
2021/12/26 08:15:50;;;;;;;8.60;4.13;;;2.50;99.90;;;;;;5026769;28;20281;-72
2021/12/26 08:18:16;;;;;;;14.67;5.63;;;2.60;99.90;;;;;;5011170;28;20022;-72
2021/12/26 08:20:42;;;;;;;8.63;4.13;;;2.60;99.90;;;;;;5012654;28;20022;-71
2021/12/26 08:23:07;;;;;;;8.73;5.03;;;2.70;99.90;;;;;;5012145;28;20022;-72
2021/12/26 08:25:35;;;;;;;10.37;4.87;;;2.70;99.90;;;;;;5009745;28;20033;-72
2021/12/26 08:28:01;;;;;;;10.70;5.17;;;2.80;99.90;;;;;;5010966;28;20038;-71
2021/12/26 08:30:27;;;;;;;11.93;5.27;;;2.80;99.90;;;;;;5028454;28;20307;-72
2021/12/26 08:32:54;;;;;;;10.73;4.53;;;2.80;99.90;;;;;;5012860;28;20018;-72
2021/12/26 08:35:20;;;;;;;9.17;4.37;;;2.90;99.90;;;;;;5029100;28;20269;-72
2021/12/26 08:37:47;;;;;;;7.67;4.20;;;3.00;99.90;;;;;;5028284;28;20527;-72
2021/12/26 08:40:14;;;;;;;7.97;4.27;;;3.00;99.90;;;;;;5027534;28;20037;-72
2021/12/26 08:42:44;;;;;;;10.93;5.23;;;3.00;99.90;;;;;;5013025;28;20328;-71
2021/12/26 08:45:10;;;;;;;9.43;4.70;;;3.00;99.90;;;;;;5011894;28;20285;-72
2021/12/26 08:47:37;;;;;;;7.90;4.50;;;3.00;99.90;;;;;;5011667;28;20499;-72
2021/12/26 08:50:03;;;;;;;8.90;4.37;;;3.10;99.90;;;;;;5011445;28;20514;-72
2021/12/26 08:52:29;;;;;;;9.20;4.37;;;3.10;99.90;;;;;;5012505;28;20339;-72
2021/12/26 08:54:54;;;;;;;10.50;4.43;;;3.10;99.90;;;;;;5011476;28;20313;-72
2021/12/26 08:57:20;;;;;;;10.83;5.13;;;3.10;99.90;;;;;;5010517;28;22157;-71
2021/12/26 08:59:46;;;;;;;8.50;4.47;;;3.10;99.90;;;;;;5012540;28;20045;-71
2021/12/26 09:02:11;;;;;;;10.57;4.57;;;3.20;99.90;;;;;;5010335;28;20050;-71
2021/12/26 09:04:40;;;;;;;12.47;5.13;;;3.20;99.90;;;;;;5027360;28;20038;-72
2021/12/26 09:07:10;;;;;;;10.53;4.90;;;3.20;99.90;;;;;;5026521;28;20093;-71
2021/12/26 09:09:38;;;;;;;8.10;4.00;;;3.30;99.90;;;;;;5027942;28;20293;-71
2021/12/26 09:12:05;;;;;;;9.47;4.57;;;3.40;99.90;;;;;;5027949;28;20301;-72
2021/12/26 09:14:31;;;;;;;11.23;4.83;;;3.40;99.90;;;;;;5027343;28;20300;-71
2021/12/26 09:17:00;;;;;;;12.93;5.00;;;3.50;99.90;;;;;;5011053;28;21458;-71
2021/12/26 09:19:28;;;;;;;9.67;4.50;;;3.50;99.90;;;;;;5032338;28;20270;-71
2021/12/26 09:21:57;;;;;;;12.00;5.30;;;3.50;99.90;;;;;;5012965;28;20273;-71
2021/12/26 09:24:23;;;;;;;8.93;4.60;;;3.50;99.90;;;;;;5012024;28;20280;-71
2021/12/26 09:26:49;;;;;;;9.07;4.53;;;3.50;99.90;;;;;;5011878;28;20085;-72
2021/12/26 09:29:17;;;;;;;10.33;4.70;;;3.50;99.90;;;;;;5010893;28;20058;-71
2021/12/26 09:31:43;;;;;;;13.80;6.27;;;3.50;99.90;;;;;;5027373;28;20022;-72
2021/12/26 09:34:10;;;;;;;11.10;5.30;;;3.40;99.90;;;;;;5027236;28;20316;-71
2021/12/26 09:36:36;;;;;;;17.53;6.23;;;3.40;99.90;;;;;;5026938;28;20082;-72
2021/12/26 09:39:03;;;;;;;10.00;5.10;;;3.30;99.90;;;;;;5027021;28;20277;-74
2021/12/26 09:41:29;;;;;;;12.13;5.97;;;3.10;99.90;;;;;;5012602;28;20014;-73
2021/12/26 09:43:55;;;;;;;13.53;5.90;;;3.00;99.90;;;;;;5010051;28;20314;-72
2021/12/26 09:46:22;;;;;;;12.23;5.73;;;3.00;99.90;;;;;;5026356;28;20164;-72
2021/12/26 09:48:51;;;;;;;12.77;5.43;;;3.00;99.90;;;;;;5010218;28;20022;-72
2021/12/26 09:51:16;;;;;;;10.63;5.80;;;2.90;99.90;;;;;;5012538;28;20304;-73
2021/12/26 09:53:43;;;;;;;17.13;5.87;;;2.90;99.90;;;;;;5011813;28;20266;-74
2021/12/26 09:56:10;;;;;;;12.97;5.40;;;2.90;99.90;;;;;;5026291;28;20023;-73
2021/12/26 09:58:56;;;;;;;14.43;5.93;;;2.90;99.90;;;;;;5033305;28;20301;-73
2021/12/26 10:01:30;;;;;;;13.60;5.87;;;2.90;99.90;;;;;;5010880;28;20362;-72
2021/12/26 10:03:59;;;;;;;11.70;5.67;;;2.90;99.90;;;;;;5027513;28;20278;-73
2021/12/26 10:06:25;;;;;;;11.07;5.07;;;2.90;99.90;;;;;;5010697;28;20285;-72
2021/12/26 10:09:04;;;;;;;11.63;5.53;;;3.00;99.90;;;;;;5012235;28;20285;-73
2021/12/26 10:11:36;;;;;;;12.57;5.70;;;3.20;99.90;;;;;;5027074;28;20094;-72
2021/12/26 10:14:05;;;;;;;12.67;5.73;;;3.30;99.90;;;;;;5012161;28;20277;-72
2021/12/26 10:16:44;;;;;;;10.00;5.57;;;3.40;99.90;;;;;;5011689;28;20037;-73
2021/12/26 10:19:10;;;;;;;11.73;5.50;;;3.50;99.90;;;;;;5027551;28;20277;-72
2021/12/26 10:21:49;;;;;;;17.23;6.23;;;3.60;99.90;;;;;;5010853;28;20033;-72
2021/12/26 10:24:18;;;;;;;12.53;6.10;;;3.70;99.90;;;;;;5027846;28;20035;-72
2021/12/26 10:26:52;;;;;;;11.60;5.70;;;3.80;99.90;;;;;;5010967;28;20348;-73
2021/12/26 10:29:38;;;;;;;12.33;5.87;;;4.00;99.90;;;;;;5013843;28;20026;-72
2021/12/26 10:32:06;;;;;;;10.37;4.57;;;4.00;99.90;;;;;;5011277;28;20026;-72
2021/12/26 10:34:36;;;;;;;11.30;4.73;;;4.10;99.90;;;;;;5027179;28;20038;-72
2021/12/26 10:37:10;;;;;;;10.77;5.23;;;4.20;99.90;;;;;;5027808;28;20022;-72
2021/12/26 10:39:43;;;;;;;13.87;5.73;;;4.20;99.90;;;;;;5028546;28;20031;-72
2021/12/26 10:42:16;;;;;;;12.98;5.97;;;4.20;99.90;;;;;;5010973;28;20019;-72
2021/12/26 10:44:46;;;;;;;;;;;4.30;99.90;;;;;;5012447;28;20042;-73
2021/12/26 10:47:15;;;;;;;16.40;7.23;;;4.30;99.90;;;;;;5012257;28;19961;-72
2021/12/26 10:49:45;;;;;;;8.03;4.33;;;4.30;99.90;;;;;;5015730;28;20171;-72
2021/12/26 10:52:17;;;;;;;9.13;4.77;;;4.40;99.90;;;;;;5032423;28;20065;-72
2021/12/26 10:54:48;;;;;;;12.07;5.30;;;4.60;99.90;;;;;;5016425;28;20014;-72
2021/12/26 10:57:19;;;;;;;10.23;4.97;;;4.60;99.90;;;;;;5032408;28;20046;-72
2021/12/26 10:59:48;;;;;;;11.43;5.23;;;4.60;99.90;;;;;;5032538;28;20030;-73
2021/12/26 11:02:30;;;;;;;11.27;4.93;;;4.60;99.90;;;;;;5031382;28;20094;-73
2021/12/26 11:05:03;;;;;;;11.05;4.97;;;4.50;99.90;;;;;;5015474;28;20035;-73
2021/12/26 11:07:55;;;;;;;9.63;4.47;;;4.50;99.90;;;;;;5015358;28;20030;-73
2021/12/26 11:10:23;;;;;;;11.40;4.80;;;4.50;99.90;;;;;;5028724;28;20026;-73
2021/12/26 11:12:53;;;;;;;11.33;5.67;;;4.50;99.90;;;;;;5015518;28;20041;-73
2021/12/26 11:15:24;;;;;;;11.10;4.67;;;4.70;99.90;;;;;;5031427;28;20035;-73
2021/12/26 11:17:56;;;;;;;9.70;4.60;;;4.80;99.90;;;;;;5014851;28;20019;-73
2021/12/26 11:20:26;;;;;;;;;;;4.90;99.90;;;;;;5031778;28;20033;-73
2021/12/26 11:22:53;;;;;;;9.63;4.50;;;4.90;99.90;;;;;;5015402;28;20107;-73
2021/12/26 11:25:19;;;;;;;8.60;4.47;;;5.00;99.90;;;;;;5014650;28;20033;-73
2021/12/26 11:27:44;;;;;;;8.43;4.23;;;5.10;99.90;;;;;;5014241;28;20038;-72
2021/12/26 11:30:11;;;;;;;9.03;4.23;;;5.20;99.90;;;;;;5018504;28;20014;-73
2021/12/26 11:32:42;;;;;;;16.10;4.73;;;5.10;99.90;;;;;;5019796;28;20030;-73
2021/12/26 11:35:09;;;;;;;10.70;4.63;;;5.20;99.90;;;;;;5015268;28;20022;-78
2021/12/26 11:37:37;;;;;;;11.53;4.77;;;5.10;99.90;;;;;;5029708;28;20293;-73
2021/12/26 11:40:06;;;;;;;9.97;5.17;;;5.10;99.90;;;;;;5015796;28;20015;-73
2021/12/26 11:43:01;;;;;;;10.77;4.07;;;5.10;99.90;;;;;;5015813;28;20025;-73
2021/12/26 11:45:30;;;;;;;9.83;4.53;;;5.20;99.90;;;;;;5013572;28;20014;-72
2021/12/26 11:48:26;;;;;;;8.73;4.37;;;5.30;99.90;;;;;;5015448;28;20038;-73
2021/12/26 11:50:54;;;;;;;9.40;4.73;;;5.20;99.90;;;;;;5014609;28;20086;-73
2021/12/26 11:53:58;;;;;;;9.17;4.37;;;5.20;99.90;;;;;;5031073;28;20087;-72
2021/12/26 11:56:30;;;;;;;11.40;5.03;;;5.30;99.90;;;;;;5020559;28;20030;-72
2021/12/26 11:59:02;;;;;;;9.05;4.28;;;5.40;99.90;;;;;;5014239;28;20038;-72
2021/12/26 12:01:31;;;;;;;9.63;4.05;;;5.50;99.90;;;;;;5030416;28;20031;-72
2021/12/26 12:04:18;;;;;;;10.67;5.03;;;5.60;99.90;;;;;;5029976;28;20042;-72
2021/12/26 12:06:46;;;;;;;8.47;4.27;;;5.60;99.90;;;;;;5031013;28;20053;-71
2021/12/26 12:09:25;;;;;;;9.10;4.40;;;5.60;99.90;;;;;;5014676;28;20018;-72
2021/12/26 12:11:56;;;;;;;10.53;4.90;;;5.80;99.90;;;;;;5014334;28;20057;-72
2021/12/26 12:14:50;;;;;;;9.40;4.37;;;5.80;99.90;;;;;;5014766;28;20042;-72
2021/12/26 12:17:18;;;;;;;7.77;4.30;;;5.80;99.90;;;;;;5015235;28;20035;-73
2021/12/26 12:20:08;;;;;;;8.63;4.43;;;5.80;99.90;;;;;;5014163;28;20023;-72
2021/12/26 12:22:34;;;;;;;11.03;4.43;;;5.90;99.90;;;;;;5014680;28;20029;-76
2021/12/26 12:25:49;;;;;;;9.17;4.87;;;5.90;99.90;;;;;;5013734;28;20053;-72
2021/12/26 12:28:16;;;;;;;9.27;3.83;;;5.90;99.90;;;;;;5033153;28;20108;-71
2021/12/26 12:30:46;;;;;;;10.57;4.73;;;5.80;99.90;;;;;;5030078;28;20041;-72
2021/12/26 12:33:25;;;;;;;8.77;4.40;;;5.70;99.90;;;;;;5015387;28;20051;-72
2021/12/26 12:36:02;;;;;;;9.20;4.27;;;5.50;99.90;;;;;;5014109;28;20045;-72
2021/12/26 12:38:27;;;;;;;10.33;4.40;;;5.40;99.90;;;;;;5015160;28;20010;-72
2021/12/26 12:40:53;;;;;;;8.23;3.83;;;5.30;99.90;;;;;;5014616;28;20018;-72
2021/12/26 12:43:22;;;;;;;9.37;4.20;;;5.20;99.90;;;;;;5014221;28;20017;-72
2021/12/26 12:45:54;;;;;;;9.60;4.17;;;5.20;99.90;;;;;;5014448;28;20038;-72
2021/12/26 12:48:45;;;;;;;11.33;5.07;;;5.30;99.90;;;;;;5013719;28;20034;-71
2021/12/26 12:51:16;;;;;;;11.53;5.07;;;5.40;99.90;;;;;;5014281;28;20018;-73
2021/12/26 12:53:55;;;;;;;8.13;4.57;;;5.40;99.90;;;;;;5012633;28;20034;-72
2021/12/26 12:56:27;;;;;;;10.90;5.13;;;5.40;99.90;;;;;;5014857;28;20090;-72
2021/12/26 12:59:15;;;;;;;10.00;4.43;;;5.30;99.90;;;;;;5014463;28;20022;-72
2021/12/26 13:01:46;;;;;;;9.20;4.03;;;5.30;99.90;;;;;;5029633;28;20069;-71
2021/12/26 13:04:13;;;;;;;9.63;4.50;;;5.30;99.90;;;;;;5029675;28;20047;-71
2021/12/26 13:07:02;;;;;;;8.60;4.33;;;5.30;99.90;;;;;;5029420;28;20090;-71
2021/12/26 13:09:29;;;;;;;9.53;4.00;;;5.20;99.90;;;;;;5029741;28;20102;-71
2021/12/26 13:12:04;;;;;;;10.77;4.63;;;5.20;99.90;;;;;;5013326;28;20499;-74